CheckWX is a tool to help pilots better visualize weather data.  It is not intended as a substitute for an official pre-flight weather briefing.

12:42:11 UTC

KQEY METAR
Geumsan Rws
Geumsan Rws, South Korea
Current

12 mins ago

KQEY 221230Z AUTO 22001KT 4800 HZ CLR 02/M05 A2985 RMK A02 TSNO
Observed
Feb-22 @ 12:30 UTC
Wind
  • 220° at 1 KTS
Visibility
4,796 meters
Flight Rules
IFR
Conditions
Haze
Cloud Levels
  • Clear skies
Temperature
C / 36°F
Dewpoint
-5°C / 23°F
Humidity
60%
Altimeter
29.85" Hg
Pressure
1010.82 hPa
Previous

22 mins ago

KQEY 221220Z AUTO 00000KT 4800 HZ CLR 02/M05 A2984 RMK A02 TSNO
Observed
Feb-22 @ 12:20 UTC
Visibility
4,796 meters
Flight Rules
IFR
Conditions
Haze
Cloud Levels
  • Clear skies
Temperature
C / 36°F
Dewpoint
-5°C / 23°F
Humidity
60%
Altimeter
29.84" Hg
Pressure
1010.52 hPa
Previous

42 mins ago

KQEY 221200Z AUTO 25002KT 4800 HZ SCT180 02/M04 A2983 RMK A02 TSNO
Observed
Feb-22 @ 12:00 UTC
Wind
  • 250° at 2 KTS
Visibility
4,796 meters
Flight Rules
IFR
Conditions
Haze
Cloud Levels
  • Scattered at 18,000' AGL
Temperature
C / 36°F
Dewpoint
-4°C / 25°F
Humidity
65%
Altimeter
29.83" Hg
Pressure
1010.12 hPa